createdAt,value
2019-03-06T00:01:11.947Z,99.90
2019-03-06T00:03:41.319Z,99.90
2019-03-06T00:06:16.716Z,99.90
2019-03-06T00:08:41.527Z,99.90
2019-03-06T00:11:10.813Z,99.90
2019-03-06T00:13:40.144Z,99.90
2019-03-06T00:16:09.494Z,99.90
2019-03-06T00:18:38.827Z,99.90
2019-03-06T00:21:08.187Z,99.90
2019-03-06T00:23:37.505Z,99.90
2019-03-06T00:26:06.874Z,99.90
2019-03-06T00:28:36.196Z,99.90
2019-03-06T00:31:05.539Z,99.90
2019-03-06T00:33:34.778Z,99.90
2019-03-06T00:36:05.315Z,99.90
2019-03-06T00:38:34.675Z,99.90
2019-03-06T00:41:29.164Z,99.90
2019-03-06T00:43:58.932Z,99.90
2019-03-06T00:46:28.312Z,99.90
2019-03-06T00:48:57.679Z,99.90
2019-03-06T00:51:26.997Z,99.90
2019-03-06T00:53:56.318Z,99.90
2019-03-06T00:56:25.964Z,99.90
2019-03-06T00:58:55.503Z,99.90
2019-03-06T01:01:24.827Z,99.90
2019-03-06T01:03:54.309Z,99.90
2019-03-06T01:06:23.764Z,99.90
2019-03-06T01:08:53.412Z,99.90
2019-03-06T01:11:23.238Z,99.90
2019-03-06T01:13:52.547Z,99.90
2019-03-06T01:16:22.079Z,99.90
2019-03-06T01:18:51.340Z,99.90
2019-03-06T01:21:21.006Z,99.90
2019-03-06T01:23:50.602Z,99.90
2019-03-06T01:26:20.046Z,99.90
2019-03-06T01:28:49.468Z,99.90
2019-03-06T01:31:18.950Z,99.90
2019-03-06T01:33:53.468Z,99.90
2019-03-06T01:36:38.863Z,99.90
2019-03-06T01:39:21.712Z,99.90
2019-03-06T01:41:58.871Z,99.90
2019-03-06T01:44:39.299Z,99.90
2019-03-06T01:47:08.866Z,99.90
2019-03-06T01:49:38.726Z,99.90
2019-03-06T01:52:08.109Z,99.90
2019-03-06T01:54:37.576Z,99.90
2019-03-06T01:57:07.084Z,99.90
2019-03-06T01:59:36.618Z,99.90
2019-03-06T02:02:06.025Z,99.90
2019-03-06T02:04:35.489Z,99.90
2019-03-06T02:07:04.941Z,99.90
2019-03-06T02:09:35.822Z,99.90
2019-03-06T02:12:06.772Z,99.90
2019-03-06T02:14:36.250Z,99.90
2019-03-06T02:17:06.000Z,99.90
2019-03-06T02:19:35.732Z,99.90
2019-03-06T02:22:05.363Z,99.90
2019-03-06T02:24:34.708Z,99.90
2019-03-06T02:27:04.100Z,99.90
2019-03-06T02:29:33.439Z,99.90
2019-03-06T02:32:02.679Z,99.90
2019-03-06T02:34:32.252Z,99.90
2019-03-06T02:37:01.596Z,99.90
2019-03-06T02:39:30.979Z,99.90
2019-03-06T02:42:00.316Z,99.90
2019-03-06T02:44:29.700Z,99.90
2019-03-06T02:46:59.329Z,99.90
2019-03-06T02:49:28.676Z,99.90
2019-03-06T02:51:58.010Z,99.90
2019-03-06T02:54:27.353Z,99.90
2019-03-06T02:56:56.693Z,99.90
2019-03-06T02:59:42.016Z,99.90
2019-03-06T03:02:24.002Z,99.90
2019-03-06T03:05:12.323Z,99.90
2019-03-06T03:07:41.658Z,99.90
2019-03-06T03:10:11.036Z,99.90
2019-03-06T03:12:40.379Z,99.90
2019-03-06T03:15:09.851Z,99.90
2019-03-06T03:17:39.198Z,99.90
2019-03-06T03:20:08.760Z,99.90
2019-03-06T03:22:37.964Z,99.90
2019-03-06T03:25:07.332Z,99.90
2019-03-06T03:27:36.734Z,99.90
2019-03-06T03:30:08.250Z,99.90
2019-03-06T03:32:37.633Z,99.90
2019-03-06T03:35:07.104Z,99.90
2019-03-06T03:37:36.446Z,99.90
2019-03-06T03:40:06.761Z,99.90
2019-03-06T03:42:36.158Z,99.90
2019-03-06T03:45:05.905Z,99.90
2019-03-06T03:47:35.360Z,99.90
2019-03-06T03:50:04.750Z,99.90
2019-03-06T03:52:34.087Z,99.90
2019-03-06T03:55:03.422Z,99.90
2019-03-06T03:57:32.914Z,99.90
2019-03-06T04:00:02.443Z,99.90
2019-03-06T04:02:31.815Z,99.90
2019-03-06T04:05:01.161Z,99.90
2019-03-06T04:07:30.568Z,99.90
2019-03-06T04:09:59.899Z,99.90
2019-03-06T04:12:29.184Z,99.90
2019-03-06T04:14:58.508Z,99.90
2019-03-06T04:17:27.819Z,99.90
2019-03-06T04:19:57.235Z,99.90
2019-03-06T04:22:26.515Z,99.90
2019-03-06T04:24:55.849Z,99.90
2019-03-06T04:27:25.258Z,99.90
2019-03-06T04:29:57.282Z,99.90
2019-03-06T04:32:26.638Z,99.90
2019-03-06T04:34:55.963Z,99.90
2019-03-06T04:37:25.324Z,99.90
2019-03-06T04:39:54.635Z,99.90
2019-03-06T04:42:23.924Z,99.90
2019-03-06T04:44:55.362Z,99.90
2019-03-06T04:47:24.563Z,99.90
2019-03-06T04:49:53.905Z,99.90
2019-03-06T04:52:23.191Z,99.90
2019-03-06T04:54:52.556Z,99.90
2019-03-06T04:57:21.828Z,99.90
2019-03-06T04:59:51.106Z,99.90
2019-03-06T05:02:20.405Z,99.90
2019-03-06T05:04:49.746Z,99.90
2019-03-06T05:07:19.024Z,99.90
2019-03-06T05:09:48.359Z,99.90
2019-03-06T05:12:17.700Z,99.90
2019-03-06T05:14:47.148Z,99.90
2019-03-06T05:17:35.808Z,99.90
2019-03-06T05:20:05.177Z,99.90
2019-03-06T05:22:34.594Z,99.90
2019-03-06T05:25:04.091Z,99.90
2019-03-06T05:27:33.455Z,99.90
2019-03-06T05:30:03.138Z,99.90
2019-03-06T05:32:34.270Z,99.90
2019-03-06T05:35:27.209Z,99.90
2019-03-06T05:38:03.128Z,99.90
2019-03-06T05:40:32.405Z,99.90
2019-03-06T05:43:01.707Z,99.90
2019-03-06T05:45:31.043Z,99.90
2019-03-06T05:48:02.016Z,99.90
2019-03-06T05:50:31.402Z,99.90
2019-03-06T05:53:00.735Z,99.90
2019-03-06T05:55:30.137Z,99.90
2019-03-06T05:57:59.522Z,99.90
2019-03-06T06:00:29.393Z,99.90
2019-03-06T06:02:58.832Z,99.90
2019-03-06T06:05:28.164Z,99.90
2019-03-06T06:07:57.454Z,99.90
2019-03-06T06:10:26.167Z,99.90
2019-03-06T06:12:55.468Z,99.90
2019-03-06T06:15:24.820Z,99.90
2019-03-06T06:17:54.097Z,99.90
2019-03-06T06:20:23.472Z,99.90
2019-03-06T06:23:10.599Z,99.90
2019-03-06T06:25:39.946Z,99.90
2019-03-06T06:28:09.300Z,99.90
2019-03-06T06:30:38.644Z,99.90
2019-03-06T06:33:08.383Z,99.90
2019-03-06T06:35:38.715Z,99.90
2019-03-06T06:38:08.042Z,99.90
2019-03-06T06:40:37.385Z,99.90
2019-03-06T06:43:06.716Z,99.90
2019-03-06T06:45:36.294Z,99.90
2019-03-06T06:48:10.117Z,99.90
2019-03-06T06:50:41.708Z,99.90
2019-03-06T06:53:35.562Z,99.90
2019-03-06T06:56:43.758Z,99.90
2019-03-06T06:59:36.710Z,99.90
2019-03-06T07:02:42.138Z,99.90
2019-03-06T07:05:26.821Z,99.90
2019-03-06T07:08:08.099Z,99.90
2019-03-06T07:11:02.547Z,99.90
2019-03-06T07:13:49.449Z,99.90
2019-03-06T07:16:44.052Z,99.90
2019-03-06T07:19:35.429Z,99.90
2019-03-06T07:22:19.145Z,99.90
2019-03-06T07:25:16.580Z,99.90
2019-03-06T07:28:09.779Z,99.90
2019-03-06T07:30:57.063Z,99.90
2019-03-06T07:33:39.898Z,99.90
2019-03-06T07:36:27.252Z,99.90
2019-03-06T07:39:16.448Z,99.90
2019-03-06T07:42:14.066Z,99.90
2019-03-06T07:45:22.183Z,99.90
2019-03-06T07:48:00.672Z,99.90
2019-03-06T07:50:44.939Z,99.90
2019-03-06T07:53:59.199Z,99.90
2019-03-06T07:56:32.156Z,99.90
2019-03-06T07:59:01.512Z,99.90
2019-03-06T08:01:33.343Z,99.90
2019-03-06T08:04:06.030Z,99.90
2019-03-06T08:06:35.572Z,99.90
2019-03-06T08:09:07.279Z,99.90
2019-03-06T08:11:53.450Z,99.90
2019-03-06T08:14:57.376Z,99.90
2019-03-06T08:17:53.936Z,99.90
2019-03-06T08:20:40.953Z,99.70
2019-03-06T08:23:28.084Z,99.90
2019-03-06T08:25:57.427Z,99.90
2019-03-06T08:28:26.675Z,99.90
2019-03-06T08:31:02.527Z,99.60
2019-03-06T08:33:31.845Z,99.70
2019-03-06T08:36:01.089Z,99.30
2019-03-06T08:38:30.413Z,99.50
2019-03-06T08:41:04.262Z,98.60
2019-03-06T08:43:30.643Z,98.10
2019-03-06T08:46:18.929Z,98.10
2019-03-06T08:49:07.187Z,97.70
2019-03-06T08:51:55.384Z,97.80
2019-03-06T08:54:40.472Z,96.60
2019-03-06T08:57:17.931Z,96.10
2019-03-06T09:00:12.040Z,95.20
2019-03-06T09:02:55.852Z,95.30
2019-03-06T09:05:56.334Z,95.40
2019-03-06T09:08:47.377Z,94.60
2019-03-06T09:11:29.947Z,93.50
2019-03-06T09:14:14.563Z,93.30
2019-03-06T09:16:59.787Z,93.00
2019-03-06T09:19:50.245Z,92.40
2019-03-06T09:22:31.131Z,92.40
2019-03-06T09:25:18.329Z,92.00
2019-03-06T09:28:03.091Z,90.90
2019-03-06T09:30:51.388Z,91.90
2019-03-06T09:33:28.687Z,92.10
2019-03-06T09:36:11.784Z,92.00
2019-03-06T09:39:00.054Z,90.10
2019-03-06T09:41:54.427Z,89.90
2019-03-06T09:44:28.779Z,91.10
2019-03-06T09:47:17.063Z,91.80
2019-03-06T09:50:02.508Z,91.50
2019-03-06T09:52:49.327Z,92.70
2019-03-06T09:55:43.783Z,92.40
2019-03-06T09:58:32.069Z,92.00
2019-03-06T10:01:38.521Z,92.30
2019-03-06T10:04:39.090Z,91.30
2019-03-06T10:07:36.416Z,91.50
2019-03-06T10:10:22.398Z,91.80
2019-03-06T10:13:10.653Z,91.90
2019-03-06T10:15:51.522Z,91.60
2019-03-06T10:18:38.831Z,91.70
2019-03-06T10:21:08.055Z,91.40
2019-03-06T10:23:37.387Z,90.70
2019-03-06T10:26:06.706Z,90.00
2019-03-06T10:28:36.715Z,90.20
2019-03-06T10:31:06.247Z,89.40
2019-03-06T10:33:35.699Z,88.20
2019-03-06T10:36:05.471Z,88.60
2019-03-06T10:38:34.800Z,88.40
2019-03-06T10:41:04.207Z,89.20
2019-03-06T10:43:33.568Z,88.40
2019-03-06T10:46:02.867Z,85.90
2019-03-06T10:48:32.139Z,87.20
2019-03-06T10:51:01.473Z,86.30
2019-03-06T10:53:30.707Z,84.20
2019-03-06T10:56:00.012Z,83.20
2019-03-06T10:58:29.339Z,84.30
2019-03-06T11:00:58.659Z,83.80
2019-03-06T11:03:37.507Z,84.10
2019-03-06T11:06:07.043Z,84.20
2019-03-06T11:08:36.351Z,83.00
2019-03-06T11:11:06.408Z,83.00
2019-03-06T11:13:35.943Z,82.50
2019-03-06T11:16:08.362Z,82.80
2019-03-06T11:18:37.690Z,83.00
2019-03-06T11:21:07.029Z,83.20
2019-03-06T11:23:36.431Z,82.70
2019-03-06T11:26:07.867Z,79.00
2019-03-06T11:28:38.599Z,76.80
2019-03-06T11:31:08.440Z,78.40
2019-03-06T11:33:37.979Z,77.40
2019-03-06T11:36:07.998Z,78.00
2019-03-06T11:38:37.351Z,78.60
2019-03-06T11:41:07.135Z,77.90
2019-03-06T11:43:36.479Z,79.40
2019-03-06T11:46:06.970Z,79.80
2019-03-06T11:48:36.307Z,80.30
2019-03-06T11:51:05.943Z,79.60
2019-03-06T11:53:35.284Z,80.00
2019-03-06T11:56:05.504Z,79.60
2019-03-06T11:58:34.820Z,79.50
2019-03-06T12:01:05.823Z,80.00
2019-03-06T12:03:35.142Z,78.00
2019-03-06T12:06:05.284Z,77.60
2019-03-06T12:08:34.790Z,77.00
2019-03-06T12:11:04.125Z,75.30
2019-03-06T12:13:33.832Z,75.20
2019-03-06T12:16:03.269Z,75.80
2019-03-06T12:18:34.113Z,73.50
2019-03-06T12:21:03.652Z,74.60
2019-03-06T12:23:32.955Z,74.20
2019-03-06T12:26:02.299Z,76.90
2019-03-06T12:28:31.623Z,75.70
2019-03-06T12:31:02.280Z,76.90
2019-03-06T12:33:31.641Z,76.00
2019-03-06T12:36:01.164Z,75.80
2019-03-06T12:38:30.498Z,75.30
2019-03-06T12:40:59.838Z,76.00
2019-03-06T12:43:29.147Z,75.50
2019-03-06T12:46:22.748Z,74.60
2019-03-06T12:48:58.883Z,74.10
2019-03-06T12:51:28.643Z,72.70
2019-03-06T12:53:57.883Z,72.50
2019-03-06T12:56:27.154Z,73.00
2019-03-06T12:58:56.466Z,71.90
2019-03-06T13:01:25.999Z,72.80
2019-03-06T13:03:55.231Z,72.00
2019-03-06T13:06:25.221Z,71.80
2019-03-06T13:08:56.419Z,71.50
2019-03-06T13:11:25.662Z,71.30
2019-03-06T13:13:55.208Z,72.00
2019-03-06T13:16:25.035Z,69.80
2019-03-06T13:18:54.365Z,70.20
2019-03-06T13:21:23.795Z,70.60
2019-03-06T13:23:53.122Z,70.00
2019-03-06T13:26:22.487Z,69.90
2019-03-06T13:28:57.324Z,69.40
2019-03-06T13:31:22.840Z,69.80
2019-03-06T13:34:10.155Z,68.90
2019-03-06T13:36:39.541Z,68.00
2019-03-06T13:39:09.435Z,67.30
2019-03-06T13:41:39.240Z,66.60
2019-03-06T13:44:08.722Z,65.90
2019-03-06T13:46:38.075Z,66.30
2019-03-06T13:49:07.386Z,66.60
2019-03-06T13:51:36.789Z,67.10
2019-03-06T13:54:06.127Z,66.70
2019-03-06T13:56:35.617Z,67.40
2019-03-06T13:59:05.426Z,67.00
2019-03-06T14:01:34.832Z,66.30
2019-03-06T14:04:04.200Z,64.40
2019-03-06T14:06:34.704Z,64.80
2019-03-06T14:09:05.391Z,63.30
2019-03-06T14:11:35.059Z,63.20
2019-03-06T14:14:05.899Z,60.10
2019-03-06T14:16:35.557Z,58.60
2019-03-06T14:19:04.957Z,57.20
2019-03-06T14:21:34.475Z,54.50
2019-03-06T14:24:04.352Z,52.20
2019-03-06T14:26:33.937Z,52.80
2019-03-06T14:29:03.550Z,52.80
2019-03-06T14:31:32.991Z,53.20
2019-03-06T14:34:02.555Z,53.00
2019-03-06T14:36:32.620Z,53.40
2019-03-06T14:39:02.310Z,53.50
2019-03-06T14:41:31.942Z,52.60
2019-03-06T14:44:01.276Z,52.00
2019-03-06T14:46:30.717Z,52.60
2019-03-06T14:49:00.178Z,53.40
2019-03-06T14:51:29.692Z,53.80
2019-03-06T14:53:59.297Z,53.90
2019-03-06T14:56:28.769Z,54.50
2019-03-06T14:58:58.339Z,55.40
2019-03-06T15:01:27.831Z,56.20
2019-03-06T15:03:57.479Z,56.80
2019-03-06T15:06:27.031Z,57.60
2019-03-06T15:08:56.619Z,58.40
2019-03-06T15:11:32.907Z,57.70
2019-03-06T15:13:57.331Z,57.80
2019-03-06T15:16:26.767Z,57.50
2019-03-06T15:18:56.319Z,57.50
2019-03-06T15:21:25.750Z,57.90
2019-03-06T15:23:55.977Z,58.10
2019-03-06T15:26:25.489Z,57.00
2019-03-06T15:28:54.742Z,57.60
2019-03-06T15:31:24.000Z,57.00
2019-03-06T15:33:53.414Z,56.90
2019-03-06T15:36:23.202Z,56.80
2019-03-06T15:38:52.660Z,56.70
2019-03-06T15:41:21.999Z,56.60
2019-03-06T15:43:51.437Z,57.50
2019-03-06T15:46:20.950Z,56.30
2019-03-06T15:48:50.716Z,56.60
2019-03-06T15:51:20.619Z,55.40
2019-03-06T15:53:50.027Z,55.50
2019-03-06T15:56:19.597Z,56.50
2019-03-06T15:58:49.203Z,56.00
2019-03-06T16:01:19.189Z,55.80
2019-03-06T16:03:48.659Z,56.80
2019-03-06T16:06:20.635Z,56.40
2019-03-06T16:08:49.837Z,56.80
2019-03-06T16:11:19.827Z,56.90
2019-03-06T16:13:49.225Z,56.80
2019-03-06T16:16:18.555Z,57.30
2019-03-06T16:18:47.967Z,57.00
2019-03-06T16:21:17.211Z,57.30
2019-03-06T16:23:46.523Z,57.10
2019-03-06T16:26:15.867Z,57.80
2019-03-06T16:28:45.369Z,57.60
2019-03-06T16:31:15.455Z,57.90
2019-03-06T16:33:44.840Z,58.70
2019-03-06T16:36:14.394Z,58.80
2019-03-06T16:38:43.935Z,59.50
2019-03-06T16:41:13.360Z,60.00
2019-03-06T16:43:42.669Z,61.00
2019-03-06T16:46:12.310Z,62.00
2019-03-06T16:48:41.626Z,64.40
2019-03-06T16:51:11.047Z,65.00
2019-03-06T16:53:40.350Z,65.40
2019-03-06T16:56:09.647Z,65.90
2019-03-06T16:58:38.966Z,67.40
2019-03-06T17:01:08.581Z,67.50
2019-03-06T17:03:37.958Z,68.40
2019-03-06T17:06:07.379Z,69.60
2019-03-06T17:08:36.752Z,70.20
2019-03-06T17:11:06.359Z,71.00
2019-03-06T17:13:35.695Z,71.60
2019-03-06T17:16:05.188Z,72.00
2019-03-06T17:18:34.520Z,72.20
2019-03-06T17:21:03.867Z,72.80
2019-03-06T17:23:33.203Z,73.90
2019-03-06T17:26:02.508Z,75.40
2019-03-06T17:28:32.169Z,76.50
2019-03-06T17:31:01.472Z,76.90
2019-03-06T17:33:30.870Z,77.60
2019-03-06T17:36:00.115Z,77.50
2019-03-06T17:38:29.610Z,77.70
2019-03-06T17:40:59.014Z,77.90
2019-03-06T17:43:28.534Z,77.80
2019-03-06T17:45:57.886Z,78.20
2019-03-06T17:48:27.210Z,77.70
2019-03-06T17:50:56.615Z,79.40
2019-03-06T17:53:27.418Z,78.60
2019-03-06T17:55:56.704Z,78.90
2019-03-06T17:58:26.059Z,78.90
2019-03-06T18:00:59.728Z,79.40
2019-03-06T18:03:42.007Z,80.00
2019-03-06T18:06:11.319Z,80.80
2019-03-06T18:08:40.864Z,80.70
2019-03-06T18:11:10.183Z,82.00
2019-03-06T18:13:39.415Z,84.40
2019-03-06T18:16:08.752Z,86.20
2019-03-06T18:18:38.088Z,86.80
2019-03-06T18:21:07.427Z,88.60
2019-03-06T18:23:36.731Z,89.10
2019-03-06T18:26:06.206Z,89.40
2019-03-06T18:28:35.627Z,90.20
2019-03-06T18:31:04.985Z,90.30
2019-03-06T18:33:34.303Z,90.40
2019-03-06T18:36:03.971Z,90.50
2019-03-06T18:38:33.308Z,91.00
2019-03-06T18:41:02.629Z,91.00
2019-03-06T18:43:31.951Z,91.00
2019-03-06T18:46:01.290Z,92.10
2019-03-06T18:48:30.598Z,92.60
2019-03-06T18:50:59.959Z,93.00
2019-03-06T18:53:29.284Z,94.50
2019-03-06T18:55:58.627Z,94.20
2019-03-06T18:58:27.991Z,94.50
2019-03-06T19:00:57.333Z,93.60
2019-03-06T19:03:26.659Z,93.60
2019-03-06T19:05:56.007Z,93.30
2019-03-06T19:08:31.227Z,93.80
2019-03-06T19:10:56.308Z,94.90
2019-03-06T19:13:25.609Z,95.10
2019-03-06T19:15:54.947Z,94.80
2019-03-06T19:18:24.287Z,95.10
2019-03-06T19:20:53.999Z,95.10
2019-03-06T19:23:23.392Z,95.20
2019-03-06T19:25:52.629Z,95.30
2019-03-06T19:28:21.995Z,95.20
2019-03-06T19:30:51.314Z,95.30
2019-03-06T19:33:20.829Z,95.00
2019-03-06T19:35:50.446Z,95.50
2019-03-06T19:38:19.775Z,95.50
2019-03-06T19:40:49.090Z,95.40
2019-03-06T19:43:18.442Z,95.40
2019-03-06T19:45:47.763Z,95.50
2019-03-06T19:48:17.100Z,95.60
2019-03-06T19:50:46.632Z,95.60
2019-03-06T19:53:16.075Z,95.60
2019-03-06T19:55:45.431Z,95.70
2019-03-06T19:58:14.764Z,96.20
2019-03-06T20:00:44.110Z,95.80
2019-03-06T20:03:13.554Z,95.90
2019-03-06T20:05:43.202Z,95.80
2019-03-06T20:08:13.104Z,95.80
2019-03-06T20:10:42.424Z,95.80
2019-03-06T20:13:11.788Z,95.80
2019-03-06T20:15:41.341Z,95.90
2019-03-06T20:18:10.636Z,96.00
2019-03-06T20:20:41.191Z,95.90
2019-03-06T20:23:10.523Z,95.80
2019-03-06T20:25:39.839Z,95.90
2019-03-06T20:28:09.237Z,96.40
2019-03-06T20:30:38.576Z,96.20
2019-03-06T20:33:08.005Z,96.10
2019-03-06T20:35:37.535Z,96.20
2019-03-06T20:38:06.923Z,96.30
2019-03-06T20:40:36.226Z,96.30
2019-03-06T20:43:05.566Z,96.30
2019-03-06T20:45:34.913Z,96.20
2019-03-06T20:48:04.291Z,96.20
2019-03-06T20:50:34.650Z,96.20
2019-03-06T20:53:04.022Z,96.30
2019-03-06T20:55:33.349Z,96.10
2019-03-06T20:58:02.946Z,96.10
2019-03-06T21:00:32.272Z,96.10
2019-03-06T21:03:01.571Z,96.10
2019-03-06T21:05:30.905Z,95.90
2019-03-06T21:08:00.223Z,99.10
2019-03-06T21:10:29.578Z,99.10
2019-03-06T21:12:58.895Z,97.50
2019-03-06T21:15:28.231Z,96.10
2019-03-06T21:17:57.552Z,94.40
2019-03-06T21:20:26.979Z,93.20
2019-03-06T21:22:56.291Z,91.90
2019-03-06T21:25:25.646Z,92.30
2019-03-06T21:27:55.169Z,91.50
2019-03-06T21:30:29.275Z,92.10
2019-03-06T21:32:58.582Z,92.20
2019-03-06T21:35:27.938Z,91.30
2019-03-06T21:37:57.277Z,92.30
2019-03-06T21:40:26.622Z,95.20
2019-03-06T21:42:55.907Z,90.70
2019-03-06T21:45:25.244Z,90.30
2019-03-06T21:47:54.555Z,91.10
2019-03-06T21:50:23.957Z,91.40
2019-03-06T21:52:53.255Z,92.20
2019-03-06T21:55:22.603Z,93.70
2019-03-06T21:57:51.982Z,94.40
2019-03-06T22:00:21.903Z,94.50
2019-03-06T22:02:51.216Z,94.90
2019-03-06T22:05:20.795Z,93.60
2019-03-06T22:07:50.687Z,94.00
2019-03-06T22:10:20.747Z,91.60
2019-03-06T22:12:50.075Z,90.80
2019-03-06T22:15:19.424Z,91.10
2019-03-06T22:17:48.757Z,91.30
2019-03-06T22:20:18.062Z,91.40
2019-03-06T22:22:47.383Z,91.60
2019-03-06T22:25:16.874Z,91.70
2019-03-06T22:27:46.321Z,91.90
2019-03-06T22:30:17.477Z,91.90
2019-03-06T22:32:48.909Z,92.10
2019-03-06T22:35:18.907Z,91.30
2019-03-06T22:37:48.287Z,91.40
2019-03-06T22:40:18.010Z,91.00
2019-03-06T22:42:47.550Z,91.00
2019-03-06T22:45:17.014Z,90.80
2019-03-06T22:47:46.347Z,90.90
2019-03-06T22:50:15.682Z,90.60
2019-03-06T22:52:45.455Z,90.70
2019-03-06T22:55:15.921Z,89.90
2019-03-06T22:57:45.275Z,88.00
2019-03-06T23:00:45.222Z,88.10
2019-03-06T23:03:15.168Z,87.80
2019-03-06T23:05:44.487Z,89.00
2019-03-06T23:08:13.822Z,90.00
2019-03-06T23:10:43.142Z,88.50
2019-03-06T23:13:12.590Z,88.20
2019-03-06T23:15:42.187Z,89.40
2019-03-06T23:18:11.621Z,90.00
2019-03-06T23:20:40.919Z,89.40
2019-03-06T23:23:10.262Z,89.60
2019-03-06T23:25:39.554Z,89.60
2019-03-06T23:28:08.848Z,90.00
2019-03-06T23:30:38.155Z,89.50
2019-03-06T23:33:07.596Z,89.60
2019-03-06T23:35:36.903Z,89.60
2019-03-06T23:38:06.231Z,89.60
2019-03-06T23:40:35.530Z,89.70
2019-03-06T23:43:05.060Z,89.70
2019-03-06T23:45:34.377Z,89.60
2019-03-06T23:48:03.707Z,89.60
2019-03-06T23:50:32.930Z,89.40
2019-03-06T23:53:09.729Z,89.80
2019-03-06T23:55:39.327Z,89.70
2019-03-06T23:58:08.670Z,89.50
